Time;durP1;ratioP1;P1;durP2;ratioP2;P2;SDS_P1;SDS_P2;PMS_P1;PMS_P2;Temp;Humidity;BMP_temperature;BMP_pressure;BME280_temperature;BME280_humidity;BME280_pressure;Samples;Min_cycle;Max_cycle;Signal;HPM_P1;HPM_P2
2022/02/03 00:00:17;;;;;;;41.03;27.98;;;23.20;99.90;;;;;;4211129;28;20047;-62
2022/02/03 00:04:51;;;;;;;41.63;28.98;;;23.20;99.90;;;;;;4211422;28;20040;-62
2022/02/03 00:07:01;;;;;;;48.55;27.13;;;23.20;99.90;;;;;;4217572;28;20039;-61
2022/02/03 00:32:06;;;;;;;37.97;24.75;;;23.30;99.90;;;;;;4209036;28;20127;-64
2022/02/03 00:34:21;;;;;;;33.20;25.20;;;23.30;99.90;;;;;;4211193;28;20048;-61
2022/02/03 00:36:39;;;;;;;36.53;25.00;;;23.30;99.90;;;;;;4209806;28;20040;-63
2022/02/03 00:50:11;;;;;;;31.15;22.00;;;23.50;99.90;;;;;;4215554;28;20052;-62
2022/02/03 00:52:15;;;;;;;155.48;106.75;;;23.60;99.90;;;;;;4206804;28;20147;-63
2022/02/03 00:54:21;;;;;;;54.45;23.90;;;23.70;99.90;;;;;;4219753;28;20044;-63
2022/02/03 00:56:40;;;;;;;53.97;24.23;;;23.70;99.90;;;;;;4217407;28;20599;-63
2022/02/03 00:59:07;;;;;;;51.35;24.00;;;23.60;99.90;;;;;;4221349;28;20051;-64
2022/02/03 01:01:15;;;;;;;32.17;21.83;;;23.60;99.90;;;;;;4208843;28;20581;-64
2022/02/03 01:03:19;;;;;;;32.05;22.20;;;23.50;99.90;;;;;;4223660;28;20457;-63
2022/02/03 01:05:23;;;;;;;30.63;20.90;;;23.50;99.90;;;;;;4222470;28;20493;-62
2022/02/03 01:07:27;;;;;;;33.00;22.50;;;23.60;99.90;;;;;;4218126;28;20036;-63
2022/02/03 01:09:34;;;;;;;39.17;23.45;;;23.60;99.90;;;;;;4222137;28;20081;-62
2022/02/03 01:11:43;;;;;;;34.47;23.67;;;23.60;99.90;;;;;;4221809;28;20047;-62
2022/02/03 01:14:06;;;;;;;143.13;30.05;;;23.70;99.90;;;;;;4217838;28;20044;-62
2022/02/03 01:21:25;;;;;;;28.40;19.42;;;23.90;99.90;;;;;;4222550;28;20079;-62
2022/02/03 01:34:50;;;;;;;20.25;13.93;;;23.60;99.90;;;;;;4219045;28;20043;-64
2022/02/03 01:37:12;;;;;;;15.82;12.10;;;23.60;99.90;;;;;;4214979;28;20498;-63
2022/02/03 01:43:59;;;;;;;11.40;8.98;;;23.70;98.70;;;;;;4213163;28;20479;-63
2022/02/03 01:46:12;;;;;;;12.80;8.55;;;23.80;98.30;;;;;;4194028;28;20559;-63
2022/02/03 01:52:51;;;;;;;15.00;7.82;;;23.90;97.70;;;;;;4216616;28;20422;-63
2022/02/03 01:54:57;;;;;;;15.88;7.18;;;24.10;97.70;;;;;;4211076;28;20135;-63
2022/02/03 01:57:07;;;;;;;11.98;6.13;;;24.20;97.30;;;;;;4213743;28;20048;-63
2022/02/03 01:59:21;;;;;;;7.50;5.72;;;24.30;96.70;;;;;;4213340;28;20044;-65
2022/02/03 02:01:27;;;;;;;8.63;6.07;;;24.30;96.60;;;;;;4193628;28;20048;-63
2022/02/03 02:03:48;;;;;;;7.20;5.45;;;24.20;96.60;;;;;;4213195;28;20118;-64
2022/02/03 02:06:31;;;;;;;9.13;5.68;;;24.30;96.60;;;;;;4213344;28;20075;-64
2022/02/03 02:08:56;;;;;;;10.60;6.30;;;24.40;96.40;;;;;;4212886;28;20059;-63
2022/02/03 02:11:30;;;;;;;8.13;5.95;;;24.50;96.50;;;;;;4213208;28;20056;-63
2022/02/03 02:13:53;;;;;;;;;;;24.60;96.10;;;;;;4212795;28;20131;-63
2022/02/03 02:16:14;;;;;;;26.55;7.00;;;24.60;96.00;;;;;;4210265;28;19928;-64
2022/02/03 02:39:07;;;;;;;7.78;6.57;;;24.90;95.10;;;;;;4216007;28;20055;-63
2022/02/03 02:44:02;;;;;;;32.40;7.80;;;25.00;95.30;;;;;;4217575;28;20036;-64
2022/02/03 02:46:17;;;;;;;24.13;7.78;;;25.10;95.30;;;;;;4226955;28;20046;-65
2022/02/03 02:49:00;;;;;;;24.42;7.82;;;25.20;95.20;;;;;;4218904;28;20048;-64
2022/02/03 02:51:11;;;;;;;11.95;6.60;;;25.30;95.20;;;;;;4219729;28;20116;-63
2022/02/03 02:53:31;;;;;;;12.52;6.78;;;25.30;95.10;;;;;;4216802;28;20666;-65
2022/02/03 02:58:31;;;;;;;10.57;6.53;;;25.10;94.90;;;;;;4223607;28;20031;-63
2022/02/03 03:30:31;;;;;;;7.25;5.10;;;25.80;93.50;;;;;;4211747;28;20043;-63
2022/02/03 03:39:50;;;;;;;8.02;5.22;;;26.00;93.10;;;;;;4210170;28;20068;-63
2022/02/03 03:41:58;;;;;;;10.32;5.35;;;26.10;93.20;;;;;;4211850;28;20048;-64
2022/02/03 03:44:07;;;;;;;8.70;5.07;;;26.10;93.20;;;;;;4209278;28;20068;-64
2022/02/03 03:46:18;;;;;;;7.53;5.20;;;26.20;92.80;;;;;;4212295;28;20044;-64
2022/02/03 03:48:29;;;;;;;7.93;5.25;;;26.10;92.70;;;;;;4213022;28;20028;-64
2022/02/03 03:50:36;;;;;;;7.90;5.57;;;26.00;92.80;;;;;;4192482;28;20040;-65
2022/02/03 03:53:03;;;;;;;6.60;4.72;;;26.10;92.70;;;;;;4212146;28;20059;-63
2022/02/03 03:55:35;;;;;;;22.65;5.10;;;26.30;92.90;;;;;;4211618;28;20051;-65
2022/02/03 03:57:46;;;;;;;7.18;5.13;;;26.30;92.80;;;;;;4210297;28;20071;-64
2022/02/03 04:30:40;;;;;;;6.43;4.90;;;26.80;91.80;;;;;;4213539;28;20528;-62
2022/02/03 05:11:16;;;;;;;7.57;5.70;;;27.50;90.90;;;;;;4215897;28;20070;-62
2022/02/03 05:25:39;;;;;;;14.07;6.00;;;27.60;90.80;;;;;;4222751;28;20126;-63
2022/02/03 06:01:23;;;;;;;11.50;8.38;;;28.10;90.20;;;;;;4220481;28;20048;-63
2022/02/03 06:07:57;;;;;;;14.15;7.72;;;28.20;90.40;;;;;;4221130;28;20050;-63
2022/02/03 06:14:29;;;;;;;8.55;6.75;;;28.20;90.20;;;;;;4219868;28;20101;-63
2022/02/03 06:23:25;;;;;;;9.57;7.78;;;28.30;90.70;;;;;;4214711;28;20101;-63
2022/02/03 06:27:48;;;;;;;14.55;7.60;;;28.40;90.50;;;;;;4218688;28;20048;-64
2022/02/03 06:29:56;;;;;;;11.45;6.90;;;28.50;90.50;;;;;;4217702;28;20105;-66
2022/02/03 06:32:00;;;;;;;9.50;7.10;;;28.60;90.30;;;;;;4221991;28;20101;-64
2022/02/03 06:34:05;;;;;;;9.18;6.50;;;28.60;90.10;;;;;;4220521;28;20032;-64
2022/02/03 06:36:09;;;;;;;8.35;6.35;;;28.70;90.20;;;;;;4210125;28;20040;-63
2022/02/03 06:38:13;;;;;;;8.48;5.82;;;28.70;90.10;;;;;;4217998;28;20043;-63
2022/02/03 06:40:17;;;;;;;10.18;7.03;;;28.80;90.00;;;;;;4227666;28;20054;-62
2022/02/03 06:42:22;;;;;;;8.35;6.65;;;28.80;89.90;;;;;;4220810;28;20457;-63
2022/02/03 06:44:41;;;;;;;9.63;6.72;;;28.80;88.70;;;;;;4220759;28;20074;-63
2022/02/03 06:46:49;;;;;;;8.32;6.55;;;28.70;89.20;;;;;;4220270;28;20032;-62
2022/02/03 06:49:06;;;;;;;9.23;6.65;;;28.70;89.70;;;;;;4218870;28;20044;-63
2022/02/03 06:51:25;;;;;;;9.00;6.35;;;28.60;89.60;;;;;;4219859;28;20051;-65
2022/02/03 06:53:42;;;;;;;10.95;7.60;;;28.60;90.00;;;;;;4218728;28;20035;-65
2022/02/03 06:57:59;;;;;;;10.05;6.43;;;28.80;89.70;;;;;;4219784;28;20747;-64
2022/02/03 07:00:09;;;;;;;8.35;6.82;;;28.80;90.00;;;;;;4220170;28;20039;-65
2022/02/03 07:02:14;;;;;;;10.90;6.78;;;28.90;90.10;;;;;;4220630;28;20393;-65
2022/02/03 07:04:23;;;;;;;9.35;6.95;;;29.00;90.00;;;;;;4216145;28;20098;-65
2022/02/03 07:06:32;;;;;;;13.18;7.40;;;29.00;89.50;;;;;;4220401;28;20806;-64
2022/02/03 07:08:37;;;;;;;10.70;6.95;;;29.00;89.50;;;;;;4217972;28;20050;-65
2022/02/03 07:10:47;;;;;;;10.23;7.22;;;29.00;89.60;;;;;;4217241;28;20124;-66
2022/02/03 07:12:52;;;;;;;13.52;6.90;;;29.00;89.60;;;;;;4220476;28;20457;-65
2022/02/03 07:14:56;;;;;;;10.35;6.60;;;29.00;90.00;;;;;;4217678;28;20048;-65
2022/02/03 07:17:02;;;;;;;10.93;7.15;;;29.10;90.00;;;;;;4218252;28;20078;-65
2022/02/03 07:19:06;;;;;;;11.13;7.40;;;29.10;88.80;;;;;;4219962;28;20044;-65
2022/02/03 07:21:13;;;;;;;9.68;7.43;;;29.00;88.70;;;;;;4219878;28;20119;-64
2022/02/03 07:23:17;;;;;;;11.65;7.60;;;28.90;89.00;;;;;;4218854;28;20040;-65
2022/02/03 07:25:22;;;;;;;8.73;7.07;;;28.90;89.20;;;;;;4220384;28;20444;-64
2022/02/03 07:27:26;;;;;;;8.98;6.70;;;28.90;89.50;;;;;;4218744;28;20044;-65
2022/02/03 07:29:31;;;;;;;12.52;7.00;;;28.90;89.70;;;;;;4219897;28;20066;-65
2022/02/03 07:31:35;;;;;;;10.23;7.35;;;28.90;89.40;;;;;;4221886;28;20067;-65
2022/02/03 07:33:39;;;;;;;10.25;6.82;;;29.00;89.70;;;;;;4219782;28;20048;-66
2022/02/03 07:35:45;;;;;;;10.23;6.97;;;29.00;89.60;;;;;;4219939;28;20080;-66
2022/02/03 07:37:51;;;;;;;10.50;6.85;;;29.10;90.00;;;;;;4218710;28;20387;-65
2022/02/03 07:39:58;;;;;;;9.60;7.32;;;29.10;90.00;;;;;;4215561;28;20052;-64
2022/02/03 07:42:05;;;;;;;9.07;6.47;;;29.10;90.00;;;;;;4220034;28;20067;-65
2022/02/03 07:44:13;;;;;;;11.43;6.47;;;29.10;90.00;;;;;;4218063;28;20396;-66
2022/02/03 07:46:17;;;;;;;11.63;7.57;;;29.20;90.00;;;;;;4215483;28;20127;-64
2022/02/03 07:48:21;;;;;;;9.77;7.30;;;29.20;89.10;;;;;;4219816;28;20473;-65
2022/02/03 07:50:26;;;;;;;8.13;7.30;;;29.10;89.50;;;;;;4218167;28;20048;-65
2022/02/03 07:52:30;;;;;;;11.18;7.55;;;29.10;89.60;;;;;;4220079;28;20040;-66
2022/02/03 07:54:35;;;;;;;9.00;7.35;;;29.10;89.80;;;;;;4216947;28;20549;-63
2022/02/03 07:56:40;;;;;;;10.77;7.88;;;29.20;89.40;;;;;;4219874;28;20040;-65
2022/02/03 07:58:44;;;;;;;10.00;7.38;;;29.10;89.20;;;;;;4219684;28;20052;-64
2022/02/03 08:00:48;;;;;;;9.23;7.18;;;29.10;88.40;;;;;;4217733;28;20474;-64
2022/02/03 08:02:53;;;;;;;11.15;7.47;;;29.10;88.60;;;;;;4219613;28;20063;-65
2022/02/03 08:04:57;;;;;;;8.90;7.28;;;29.10;89.30;;;;;;4216867;28;20070;-63
2022/02/03 08:07:02;;;;;;;11.15;7.90;;;29.10;89.60;;;;;;4223085;28;20047;-64
2022/02/03 08:09:11;;;;;;;13.63;7.63;;;29.10;89.40;;;;;;4222879;28;20036;-64
2022/02/03 08:11:24;;;;;;;9.35;7.85;;;29.10;89.00;;;;;;4222735;28;20040;-65
2022/02/03 08:13:33;;;;;;;11.15;8.15;;;29.10;89.10;;;;;;4222400;28;20462;-64
2022/02/03 08:15:40;;;;;;;9.65;7.40;;;29.00;89.00;;;;;;4220382;28;20050;-64
2022/02/03 08:17:45;;;;;;;11.95;7.93;;;29.00;89.10;;;;;;4219677;28;20078;-64
2022/02/03 08:20:03;;;;;;;9.45;7.78;;;29.10;89.20;;;;;;4221615;28;20067;-65
2022/02/03 08:22:16;;;;;;;12.75;8.75;;;29.10;89.50;;;;;;4222534;28;20136;-64
2022/02/03 08:24:25;;;;;;;15.90;8.10;;;29.10;89.50;;;;;;4220899;28;20104;-65
2022/02/03 08:31:24;;;;;;;15.32;8.20;;;29.10;89.50;;;;;;4215505;28;20424;-63
2022/02/03 08:33:21;;;;;;;13.32;8.70;;;29.10;89.60;;;;;;4214534;28;20106;-64
2022/02/03 08:39:56;;;;;;;13.32;8.90;;;29.20;89.70;;;;;;4215242;28;20498;-64
2022/02/03 08:42:05;;;;;;;10.55;8.23;;;29.20;89.40;;;;;;4215445;28;20048;-64
2022/02/03 08:44:10;;;;;;;10.18;8.13;;;29.20;89.60;;;;;;4228399;28;20050;-64
2022/02/03 08:46:15;;;;;;;12.13;8.10;;;29.20;89.10;;;;;;4232262;28;20047;-64
2022/02/03 08:48:20;;;;;;;12.32;8.27;;;29.20;89.30;;;;;;4232124;28;20051;-64
2022/02/03 08:50:24;;;;;;;11.20;8.32;;;29.20;89.00;;;;;;4213971;28;20055;-64
2022/02/03 08:52:40;;;;;;;12.00;8.38;;;29.20;88.60;;;;;;4232017;28;20051;-64
2022/02/03 08:54:59;;;;;;;12.32;8.20;;;29.20;89.00;;;;;;4227770;28;20054;-64
2022/02/03 08:57:14;;;;;;;12.55;7.97;;;29.20;88.80;;;;;;4231904;28;20080;-63
2022/02/03 09:38:26;;;;;;;12.40;9.27;;;29.20;88.80;;;;;;4213861;28;20044;-63
2022/02/03 09:54:18;;;;;;;11.45;8.57;;;29.10;88.30;;;;;;4211471;28;20056;-64
2022/02/03 09:58:29;;;;;;;10.82;8.70;;;29.00;88.40;;;;;;4215069;28;20105;-63
2022/02/03 10:00:54;;;;;;;10.80;8.38;;;29.00;88.20;;;;;;4208985;28;20052;-64
2022/02/03 10:03:00;;;;;;;12.43;8.40;;;29.00;88.30;;;;;;4213737;28;20102;-64
2022/02/03 10:05:21;;;;;;;11.77;8.63;;;29.00;88.40;;;;;;4213640;28;20506;-65
2022/02/03 10:07:32;;;;;;;11.95;8.85;;;28.90;88.20;;;;;;4213555;28;20105;-64
2022/02/03 10:09:41;;;;;;;12.43;8.73;;;28.90;88.50;;;;;;4213163;28;20127;-64
2022/02/03 10:11:54;;;;;;;11.48;8.90;;;28.90;88.50;;;;;;4215154;28;20051;-65
2022/02/03 10:14:04;;;;;;;13.73;9.13;;;28.90;88.50;;;;;;4194426;28;20048;-65
2022/02/03 10:16:10;;;;;;;12.60;9.05;;;28.90;88.30;;;;;;4213096;28;20036;-64
2022/02/03 10:18:27;;;;;;;14.55;9.27;;;28.90;88.20;;;;;;4195364;28;20040;-65
2022/02/03 10:20:32;;;;;;;12.40;9.32;;;28.90;88.60;;;;;;4212989;28;20040;-64
2022/02/03 10:22:48;;;;;;;12.50;9.63;;;28.80;88.90;;;;;;4213484;28;20433;-64
2022/02/03 10:25:01;;;;;;;9.82;8.88;;;28.80;88.90;;;;;;4209318;28;20141;-64
2022/02/03 10:27:24;;;;;;;10.88;8.73;;;28.80;88.70;;;;;;4212152;28;20558;-66
2022/02/03 10:29:36;;;;;;;12.00;8.63;;;28.80;88.50;;;;;;4214068;28;20044;-63
2022/02/03 10:31:43;;;;;;;11.73;9.18;;;28.80;88.60;;;;;;4210823;28;20051;-64
2022/02/03 10:33:48;;;;;;;12.35;8.80;;;28.80;89.00;;;;;;4213034;28;20630;-63
2022/02/03 10:35:58;;;;;;;11.73;9.27;;;28.80;89.20;;;;;;4213003;28;20048;-65
2022/02/03 10:54:22;;;;;;;19.13;11.50;;;28.50;90.20;;;;;;4211276;28;20125;-62
2022/02/03 10:58:46;;;;;;;19.38;13.88;;;28.50;90.50;;;;;;4212593;28;20051;-63
2022/02/03 11:07:39;;;;;;;20.80;12.05;;;28.40;90.80;;;;;;4219146;28;20039;-64
2022/02/03 11:09:55;;;;;;;16.50;12.20;;;28.30;91.00;;;;;;4220842;28;20042;-63
2022/02/03 11:12:22;;;;;;;18.40;11.73;;;28.30;91.00;;;;;;4213007;28;20286;-63
2022/02/03 11:14:27;;;;;;;20.65;12.27;;;28.30;91.00;;;;;;4210676;28;20105;-63
2022/02/03 11:16:37;;;;;;;16.15;11.43;;;28.30;91.10;;;;;;4211460;28;20138;-63
2022/02/03 11:18:42;;;;;;;14.48;11.30;;;28.20;90.90;;;;;;4209380;28;20048;-63
2022/02/03 11:20:47;;;;;;;21.60;13.93;;;28.20;91.00;;;;;;4211989;28;20047;-63
2022/02/03 11:23:01;;;;;;;23.52;16.02;;;28.20;91.00;;;;;;4212478;28;20044;-63
2022/02/03 11:25:17;;;;;;;20.63;14.90;;;28.20;91.10;;;;;;4210051;28;20071;-64
2022/02/03 11:27:34;;;;;;;23.42;14.50;;;28.20;91.10;;;;;;4210014;28;20060;-63
2022/02/03 11:55:20;;;;;;;19.42;11.32;;;28.00;91.30;;;;;;4204483;28;20091;-63
2022/02/03 12:02:01;;;;;;;21.80;12.73;;;28.00;91.40;;;;;;4206311;28;20051;-64
2022/02/03 12:07:14;;;;;;;15.25;10.80;;;27.90;91.50;;;;;;4210594;28;20040;-63
2022/02/03 12:16:58;;;;;;;20.63;9.88;;;27.80;91.40;;;;;;4209472;28;20128;-63
2022/02/03 12:21:13;;;;;;;17.55;11.00;;;27.80;91.40;;;;;;4208637;28;20040;-64
2022/02/03 12:26:08;;;;;;;16.92;11.70;;;27.80;91.40;;;;;;4207862;28;20058;-63
2022/02/03 12:30:33;;;;;;;22.90;12.45;;;27.80;91.40;;;;;;4206777;28;20043;-62
2022/02/03 12:37:13;;;;;;;20.10;12.73;;;27.70;91.50;;;;;;4208496;28;20578;-62
2022/02/03 12:39:23;;;;;;;19.55;12.70;;;27.70;91.50;;;;;;4211404;28;20051;-62
2022/02/03 12:41:35;;;;;;;17.23;12.90;;;27.70;91.50;;;;;;4208640;28;20065;-62
2022/02/03 12:44:01;;;;;;;20.92;13.57;;;27.70;91.60;;;;;;4206583;28;20044;-62
2022/02/03 12:46:06;;;;;;;23.10;12.80;;;27.70;91.50;;;;;;4208206;28;20414;-63
2022/02/03 12:48:11;;;;;;;18.25;12.93;;;27.70;91.60;;;;;;4208945;28;20399;-62
2022/02/03 12:50:25;;;;;;;23.02;13.48;;;27.70;91.60;;;;;;4209329;28;20464;-62
2022/02/03 12:52:30;;;;;;;20.75;12.88;;;27.70;91.60;;;;;;4209407;28;20437;-63
2022/02/03 12:54:34;;;;;;;18.60;12.73;;;27.60;91.60;;;;;;4209128;28;20062;-63
2022/02/03 12:56:38;;;;;;;20.70;12.70;;;27.60;91.80;;;;;;4199023;28;20077;-63
2022/02/03 12:58:45;;;;;;;19.40;12.48;;;27.60;91.80;;;;;;4212551;28;20750;-63
2022/02/03 13:00:56;;;;;;;18.27;12.25;;;27.60;91.90;;;;;;4218312;28;20067;-63
2022/02/03 13:03:03;;;;;;;18.13;12.13;;;27.60;91.90;;;;;;4219473;28;20642;-63
2022/02/03 13:05:07;;;;;;;22.17;12.07;;;27.60;91.90;;;;;;4216103;28;20044;-63
2022/02/03 13:07:15;;;;;;;18.85;12.00;;;27.60;91.90;;;;;;4211709;28;20118;-62
2022/02/03 13:09:27;;;;;;;18.17;11.95;;;27.60;91.90;;;;;;4223280;28;20040;-63
2022/02/03 13:11:41;;;;;;;18.95;12.63;;;27.60;92.00;;;;;;4212577;28;20461;-62
2022/02/03 13:16:10;;;;;;;17.25;11.75;;;27.50;92.10;;;;;;4220189;28;20051;-62
2022/02/03 13:18:24;;;;;;;19.95;12.23;;;27.40;92.40;;;;;;4210038;28;20130;-62
2022/02/03 13:20:43;;;;;;;19.30;12.27;;;27.30;92.50;;;;;;4204204;28;20052;-63
2022/02/03 13:22:59;;;;;;;16.15;11.43;;;27.30;92.50;;;;;;4209718;28;20203;-62
2022/02/03 13:27:14;;;;;;;19.13;12.45;;;27.20;92.50;;;;;;4211842;28;20048;-62
2022/02/03 13:29:28;;;;;;;16.67;11.57;;;27.30;92.60;;;;;;4219277;28;20048;-62
2022/02/03 13:31:47;;;;;;;21.38;11.63;;;27.30;92.50;;;;;;4209217;28;20066;-63
2022/02/03 13:34:00;;;;;;;23.77;11.45;;;27.30;92.50;;;;;;4207959;28;20528;-63
2022/02/03 13:36:09;;;;;;;;;;;27.40;92.70;;;;;;4212186;28;20123;-62
2022/02/03 13:38:36;;;;;;;20.00;12.95;;;27.30;92.90;;;;;;4215782;28;19923;-62
2022/02/03 13:40:37;;;;;;;18.88;11.80;;;27.30;92.90;;;;;;4217091;28;20043;-62
2022/02/03 13:42:51;;;;;;;19.33;12.73;;;27.30;92.80;;;;;;4199005;28;20040;-62
2022/02/03 13:45:04;;;;;;;21.40;13.15;;;27.30;92.90;;;;;;4211777;28;20109;-62
2022/02/03 13:47:21;;;;;;;16.13;12.15;;;27.30;92.90;;;;;;4196594;28;20040;-62
2022/02/03 13:49:29;;;;;;;14.48;11.65;;;27.20;93.00;;;;;;4211500;28;20055;-62
2022/02/03 13:51:38;;;;;;;19.00;12.68;;;27.20;93.10;;;;;;4211741;28;20508;-63
2022/02/03 13:53:49;;;;;;;18.65;12.75;;;27.20;93.10;;;;;;4211783;28;20097;-62
2022/02/03 14:15:17;;;;;;;16.67;13.30;;;27.00;93.70;;;;;;4221750;28;20040;-63
2022/02/03 14:18:06;;;;;;;20.88;13.70;;;27.00;93.60;;;;;;4206650;28;20078;-63
2022/02/03 14:22:07;;;;;;;15.18;12.48;;;27.00;93.70;;;;;;4212528;28;20099;-63
2022/02/03 14:28:59;;;;;;;20.67;12.75;;;26.90;93.90;;;;;;4202844;28;20578;-62
2022/02/03 14:31:06;;;;;;;16.70;13.32;;;26.90;93.90;;;;;;4210314;28;20102;-62
2022/02/03 14:33:11;;;;;;;17.77;13.45;;;26.90;93.90;;;;;;4210700;28;20615;-62
2022/02/03 14:35:17;;;;;;;21.27;13.82;;;26.90;94.00;;;;;;4211210;28;20044;-62
2022/02/03 14:39:46;;;;;;;18.85;13.68;;;26.90;94.40;;;;;;4210952;28;20040;-62
2022/02/03 14:41:51;;;;;;;22.77;15.02;;;26.90;94.20;;;;;;4211002;28;20051;-62
2022/02/03 14:43:57;;;;;;;21.02;14.10;;;26.90;94.30;;;;;;4210541;28;20097;-62
2022/02/03 14:46:11;;;;;;;21.50;14.30;;;26.90;94.20;;;;;;4209888;28;20145;-62
2022/02/03 14:48:16;;;;;;;20.92;14.43;;;26.80;94.20;;;;;;4210944;28;20160;-62
2022/02/03 14:50:22;;;;;;;20.90;14.98;;;26.60;94.30;;;;;;4210183;28;20064;-62
2022/02/03 14:52:44;;;;;;;25.05;15.05;;;26.60;94.40;;;;;;4210311;28;20064;-62
2022/02/03 14:59:22;;;;;;;20.73;15.15;;;26.70;93.70;;;;;;4209539;28;20040;-62
2022/02/03 15:01:27;;;;;;;24.15;15.63;;;26.50;93.60;;;;;;4213238;28;20089;-62
2022/02/03 15:03:32;;;;;;;23.40;15.23;;;26.60;93.60;;;;;;4212399;28;20101;-62
2022/02/03 15:05:38;;;;;;;25.15;15.57;;;26.60;93.40;;;;;;4207935;28;20639;-62
2022/02/03 15:07:43;;;;;;;21.48;14.82;;;26.60;93.40;;;;;;4210073;28;20044;-62
2022/02/03 15:10:02;;;;;;;22.80;14.40;;;26.60;93.10;;;;;;4209198;28;20064;-62
2022/02/03 15:14:31;;;;;;;19.02;14.93;;;26.60;93.10;;;;;;4209110;28;20104;-62
2022/02/03 15:16:36;;;;;;;27.17;16.25;;;26.60;93.10;;;;;;4205474;28;20557;-62
2022/02/03 15:19:00;;;;;;;27.25;15.73;;;26.60;93.30;;;;;;4218509;28;20055;-62
2022/02/03 15:21:06;;;;;;;26.25;15.07;;;26.60;93.30;;;;;;4213815;28;20109;-62
2022/02/03 15:23:10;;;;;;;22.15;15.60;;;26.60;93.20;;;;;;4209819;28;20534;-62
2022/02/03 15:25:14;;;;;;;23.60;15.93;;;26.60;93.10;;;;;;4209325;28;20040;-62
2022/02/03 15:27:18;;;;;;;21.63;15.65;;;26.60;93.30;;;;;;4209767;28;20515;-62
2022/02/03 15:29:23;;;;;;;27.92;17.83;;;26.50;93.40;;;;;;4217420;28;20071;-61
2022/02/03 15:31:31;;;;;;;21.30;16.95;;;26.50;93.40;;;;;;4214920;28;20053;-61
2022/02/03 15:33:37;;;;;;;24.80;16.48;;;26.40;93.50;;;;;;4212684;28;20048;-62
2022/02/03 15:35:46;;;;;;;24.08;16.10;;;26.40;93.60;;;;;;4221465;28;20052;-62
2022/02/03 15:37:52;;;;;;;23.38;17.38;;;26.50;93.50;;;;;;4208277;28;20805;-62
2022/02/03 15:40:03;;;;;;;24.10;16.67;;;26.40;93.50;;;;;;4210012;28;20052;-62
2022/02/03 15:42:08;;;;;;;21.23;15.50;;;26.40;93.60;;;;;;4225484;28;20561;-62
2022/02/03 15:44:12;;;;;;;26.85;16.98;;;26.30;93.80;;;;;;4225969;28;20071;-62
2022/02/03 15:46:18;;;;;;;21.30;15.85;;;26.30;93.80;;;;;;4212437;28;20044;-61
2022/02/03 16:17:44;;;;;;;24.60;17.20;;;26.10;94.40;;;;;;4209472;28;20071;-62
2022/02/03 16:20:03;;;;;;;22.42;15.75;;;26.10;94.50;;;;;;4209603;28;20056;-62
2022/02/03 16:22:20;;;;;;;23.63;17.08;;;26.10;94.50;;;;;;4209731;28;20044;-62
2022/02/03 16:24:50;;;;;;;22.83;16.45;;;26.00;94.60;;;;;;4193022;28;20765;-62
2022/02/03 16:43:27;;;;;;;18.48;13.32;;;26.00;94.60;;;;;;4213354;28;20139;-62
2022/02/03 16:54:10;;;;;;;16.33;12.10;;;25.80;94.50;;;;;;4212806;28;20135;-62
2022/02/03 16:56:16;;;;;;;18.35;12.02;;;25.90;94.30;;;;;;4216209;28;20374;-62
2022/02/03 16:58:20;;;;;;;17.38;11.57;;;25.90;94.30;;;;;;4229516;28;20066;-62
2022/02/03 17:00:25;;;;;;;18.70;11.63;;;25.90;94.20;;;;;;4228187;28;20051;-62
2022/02/03 17:02:42;;;;;;;21.48;11.27;;;25.80;94.20;;;;;;4212449;28;20044;-62
2022/02/03 17:04:46;;;;;;;15.55;11.20;;;25.80;94.30;;;;;;4213228;28;20791;-62
2022/02/03 17:06:50;;;;;;;17.05;10.40;;;25.80;94.00;;;;;;4211880;28;20052;-62
2022/02/03 17:08:55;;;;;;;14.73;10.23;;;25.70;94.10;;;;;;4212311;28;20559;-62
2022/02/03 17:10:59;;;;;;;14.63;9.77;;;25.70;94.10;;;;;;4211947;28;20093;-62
2022/02/03 17:13:04;;;;;;;15.63;9.88;;;25.70;94.00;;;;;;4212130;28;20593;-62
2022/02/03 17:15:08;;;;;;;14.38;10.68;;;25.70;94.00;;;;;;4216133;28;20501;-62
2022/02/03 17:17:13;;;;;;;13.23;10.23;;;25.70;93.90;;;;;;4216185;28;20048;-62
2022/02/03 17:19:21;;;;;;;13.10;10.40;;;25.70;93.90;;;;;;4212225;28;20048;-62
2022/02/03 17:21:28;;;;;;;13.38;10.38;;;25.70;94.00;;;;;;4211959;28;20573;-62
2022/02/03 17:23:32;;;;;;;15.85;10.50;;;25.70;93.90;;;;;;4213341;28;20494;-62
2022/02/03 17:28:18;;;;;;;12.25;10.25;;;25.70;93.90;;;;;;4195636;28;20501;-62
2022/02/03 17:30:32;;;;;;;14.02;10.23;;;25.70;94.00;;;;;;4195394;28;20744;-62
2022/02/03 17:54:03;;;;;;;12.75;9.68;;;25.50;93.70;;;;;;4211456;28;20459;-62
2022/02/03 18:09:09;;;;;;;9.50;7.88;;;25.40;93.40;;;;;;4211396;28;20093;-62
2022/02/03 18:17:18;;;;;;;10.15;8.45;;;25.30;93.60;;;;;;4211109;28;20097;-62
2022/02/03 18:31:45;;;;;;;10.48;8.15;;;25.40;93.60;;;;;;4228085;28;20422;-61
2022/02/03 18:34:18;;;;;;;11.93;7.75;;;25.40;93.50;;;;;;4211365;28;20159;-62
2022/02/03 18:36:28;;;;;;;;;;;25.30;93.50;;;;;;4210975;28;20059;-62
2022/02/03 19:21:33;;;;;;;9.57;7.65;;;25.10;93.70;;;;;;4225912;28;20069;-62
2022/02/03 20:01:06;;;;;;;9.13;6.47;;;24.80;93.80;;;;;;4207940;28;20056;-62
2022/02/03 20:10:48;;;;;;;7.82;5.95;;;24.70;93.90;;;;;;4215353;28;20060;-62
2022/02/03 20:12:52;;;;;;;11.40;6.28;;;24.70;93.70;;;;;;4215522;28;20422;-62
2022/02/03 20:14:57;;;;;;;7.72;5.57;;;24.60;93.60;;;;;;4214971;28;20050;-62
2022/02/03 20:17:02;;;;;;;8.60;5.40;;;24.50;93.70;;;;;;4225716;28;20047;-62
2022/02/03 20:19:06;;;;;;;8.75;5.90;;;24.60;93.70;;;;;;4226579;28;20048;-62
2022/02/03 20:21:11;;;;;;;6.97;5.28;;;24.60;93.60;;;;;;4215393;28;20548;-62
2022/02/03 20:23:18;;;;;;;7.22;5.50;;;24.70;93.50;;;;;;4215411;28;20047;-62
2022/02/03 20:25:22;;;;;;;8.73;5.65;;;24.70;93.50;;;;;;4215127;28;20070;-61
2022/02/03 20:27:26;;;;;;;8.45;5.70;;;24.70;93.50;;;;;;4216206;28;20052;-62
2022/02/03 20:29:30;;;;;;;10.02;5.97;;;24.70;93.50;;;;;;4216902;28;20571;-62
2022/02/03 20:31:35;;;;;;;6.85;5.40;;;24.60;93.90;;;;;;4215195;28;20036;-62
2022/02/03 20:33:39;;;;;;;10.52;4.93;;;24.60;93.60;;;;;;4214739;28;20089;-62
2022/02/03 20:35:44;;;;;;;8.73;5.40;;;24.60;93.60;;;;;;4215088;28;20048;-62
2022/02/03 20:37:48;;;;;;;7.90;4.78;;;24.60;93.50;;;;;;4216035;28;20054;-62
2022/02/03 20:39:53;;;;;;;9.68;5.45;;;24.60;93.90;;;;;;4214835;28;20052;-62
2022/02/03 20:41:57;;;;;;;7.60;4.80;;;24.60;94.00;;;;;;4215383;28;20050;-62
2022/02/03 20:44:01;;;;;;;8.50;5.30;;;24.60;94.40;;;;;;4214863;28;20198;-61
2022/02/03 20:46:06;;;;;;;9.60;5.10;;;24.60;94.30;;;;;;4215088;28;20139;-61
2022/02/03 20:48:10;;;;;;;10.68;5.38;;;24.60;94.50;;;;;;4217299;28;20040;-61
2022/02/03 20:50:20;;;;;;;7.95;5.10;;;24.60;94.60;;;;;;4215017;28;20051;-61
2022/02/03 20:52:24;;;;;;;7.38;5.65;;;24.50;94.40;;;;;;4215059;28;20142;-61
2022/02/03 20:54:28;;;;;;;7.55;5.07;;;24.50;94.40;;;;;;4215211;28;20077;-61
2022/02/03 20:56:32;;;;;;;8.15;4.72;;;24.50;94.40;;;;;;4215270;28;20052;-62
2022/02/03 20:58:38;;;;;;;7.50;4.95;;;24.50;94.50;;;;;;4224543;28;20043;-61
2022/02/03 21:00:51;;;;;;;8.25;5.07;;;24.40;94.40;;;;;;4217852;28;20075;-62
2022/02/03 21:05:05;;;;;;;6.78;4.65;;;24.40;94.10;;;;;;4214736;28;20052;-61
2022/02/03 21:07:13;;;;;;;7.22;4.60;;;24.30;93.80;;;;;;4214687;28;20051;-61
2022/02/03 21:09:23;;;;;;;5.53;4.70;;;24.20;94.00;;;;;;4215480;28;20043;-61
2022/02/03 21:11:27;;;;;;;6.63;4.22;;;23.90;94.20;;;;;;4211658;28;20040;-61
2022/02/03 21:13:32;;;;;;;7.50;4.60;;;23.90;94.40;;;;;;4212465;28;20367;-61
2022/02/03 21:15:38;;;;;;;6.70;4.15;;;24.00;94.00;;;;;;4212328;28;20530;-61
2022/02/03 21:17:43;;;;;;;5.60;4.38;;;24.00;93.90;;;;;;4212328;28;20571;-62
2022/02/03 21:19:47;;;;;;;6.10;4.28;;;24.10;93.90;;;;;;4217855;28;20058;-62
2022/02/03 21:21:51;;;;;;;5.50;4.40;;;24.10;93.70;;;;;;4212476;28;20056;-62
2022/02/03 21:23:56;;;;;;;8.75;4.93;;;24.10;93.70;;;;;;4212106;28;20080;-62
2022/02/03 21:26:02;;;;;;;6.13;4.30;;;24.20;93.60;;;;;;4212157;28;20044;-62
2022/02/03 21:28:11;;;;;;;7.47;4.30;;;24.30;93.50;;;;;;4212094;28;20130;-62
2022/02/03 21:30:17;;;;;;;7.60;4.35;;;24.30;93.40;;;;;;4219788;28;20048;-62
2022/02/03 21:32:22;;;;;;;6.45;4.30;;;24.30;93.60;;;;;;4211921;28;20075;-61
2022/02/03 21:34:26;;;;;;;5.20;4.30;;;24.20;93.80;;;;;;4211877;28;20052;-62
2022/02/03 21:36:36;;;;;;;4.88;4.15;;;24.20;93.70;;;;;;4211800;28;20055;-62
2022/02/03 21:38:41;;;;;;;7.85;4.45;;;24.20;93.60;;;;;;4211856;28;20082;-62
2022/02/03 21:40:45;;;;;;;5.50;4.38;;;24.20;93.60;;;;;;4212582;28;20500;-62
2022/02/03 21:42:50;;;;;;;6.25;4.47;;;24.10;93.80;;;;;;4211662;28;20131;-61
2022/02/03 21:44:54;;;;;;;5.32;4.03;;;24.10;93.60;;;;;;4211640;28;20158;-62